sensor_id;sensor_type;location;lat;lon;timestamp;pressure;altitude;pressure_sealevel;temperature;humidity
47054;BME280;32811;52.382;5.270;2023-08-06T00:00:54;100586.03;;;14.30;100.00
47054;BME280;32811;52.382;5.270;2023-08-06T00:03:21;100584.28;;;14.31;100.00
47054;BME280;32811;52.382;5.270;2023-08-06T00:05:48;100584.25;;;14.34;100.00
47054;BME280;32811;52.382;5.270;2023-08-06T00:08:14;100580.88;;;14.29;100.00
47054;BME280;32811;52.382;5.270;2023-08-06T00:10:41;100586.94;;;14.28;100.00
47054;BME280;32811;52.382;5.270;2023-08-06T00:13:08;100583.50;;;14.24;100.00
47054;BME280;32811;52.382;5.270;2023-08-06T00:15:35;100578.38;;;14.21;100.00
47054;BME280;32811;52.382;5.270;2023-08-06T00:18:01;100583.50;;;14.27;100.00
47054;BME280;32811;52.382;5.270;2023-08-06T00:20:28;100586.13;;;14.24;100.00
47054;BME280;32811;52.382;5.270;2023-08-06T00:22:54;100580.00;;;14.28;100.00
47054;BME280;32811;52.382;5.270;2023-08-06T00:25:21;100584.44;;;14.22;100.00
47054;BME280;32811;52.382;5.270;2023-08-06T00:27:48;100580.97;;;14.21;100.00
47054;BME280;32811;52.382;5.270;2023-08-06T00:30:14;100577.53;;;14.19;100.00
47054;BME280;32811;52.382;5.270;2023-08-06T00:32:41;100579.34;;;14.14;100.00
47054;BME280;32811;52.382;5.270;2023-08-06T00:35:08;100581.03;;;14.18;100.00
47054;BME280;32811;52.382;5.270;2023-08-06T00:37:34;100581.88;;;14.20;100.00
47054;BME280;32811;52.382;5.270;2023-08-06T00:40:01;100593.09;;;14.21;100.00
47054;BME280;32811;52.382;5.270;2023-08-06T00:42:28;100584.47;;;14.19;100.00
47054;BME280;32811;52.382;5.270;2023-08-06T00:44:54;100580.19;;;14.18;100.00
47054;BME280;32811;52.382;5.270;2023-08-06T00:47:21;100572.41;;;14.16;100.00
47054;BME280;32811;52.382;5.270;2023-08-06T00:49:48;100580.22;;;14.13;100.00
47054;BME280;32811;52.382;5.270;2023-08-06T00:52:14;100580.22;;;14.15;100.00
47054;BME280;32811;52.382;5.270;2023-08-06T00:54:41;100580.22;;;14.15;100.00
47054;BME280;32811;52.382;5.270;2023-08-06T00:57:09;100576.72;;;14.17;100.00
47054;BME280;32811;52.382;5.270;2023-08-06T00:59:36;100578.44;;;14.18;100.00
47054;BME280;32811;52.382;5.270;2023-08-06T01:02:03;100588.81;;;14.18;100.00
47054;BME280;32811;52.382;5.270;2023-08-06T01:04:30;100571.56;;;14.16;100.00
47054;BME280;32811;52.382;5.270;2023-08-06T01:12:16;100577.53;;;14.22;100.00
47054;BME280;32811;52.382;5.270;2023-08-06T01:15:05;100575.78;;;14.21;100.00
47054;BME280;32811;52.382;5.270;2023-08-06T01:17:35;100577.53;;;14.21;100.00
47054;BME280;32811;52.382;5.270;2023-08-06T01:20:03;100567.16;;;14.19;100.00
47054;BME280;32811;52.382;5.270;2023-08-06T01:22:30;100573.25;;;14.18;100.00
47054;BME280;32811;52.382;5.270;2023-08-06T01:24:57;100570.66;;;14.18;100.00
47054;BME280;32811;52.382;5.270;2023-08-06T01:27:36;100571.56;;;14.14;100.00
47054;BME280;32811;52.382;5.270;2023-08-06T01:30:12;100578.38;;;14.21;100.00
47054;BME280;32811;52.382;5.270;2023-08-06T01:35:11;100582.75;;;14.19;100.00
47054;BME280;32811;52.382;5.270;2023-08-06T01:37:39;100583.50;;;14.24;100.00
47054;BME280;32811;52.382;5.270;2023-08-06T01:40:15;100573.25;;;14.18;100.00
47054;BME280;32811;52.382;5.270;2023-08-06T01:42:42;100575.81;;;14.20;100.00
47054;BME280;32811;52.382;5.270;2023-08-06T01:45:09;100580.13;;;14.22;100.00
47054;BME280;32811;52.382;5.270;2023-08-06T01:47:36;100579.22;;;14.23;100.00
47054;BME280;32811;52.382;5.270;2023-08-06T01:50:03;100579.22;;;14.22;100.00
47054;BME280;32811;52.382;5.270;2023-08-06T01:52:29;100574.03;;;14.22;100.00
47054;BME280;32811;52.382;5.270;2023-08-06T01:54:56;100560.38;;;14.10;100.00
47054;BME280;32811;52.382;5.270;2023-08-06T01:57:23;100582.72;;;14.21;100.00
47054;BME280;32811;52.382;5.270;2023-08-06T01:59:50;100571.56;;;14.16;100.00
47054;BME280;32811;52.382;5.270;2023-08-06T02:02:17;100575.00;;;14.16;100.00
47054;BME280;32811;52.382;5.270;2023-08-06T02:04:43;100577.59;;;14.18;100.00
47054;BME280;32811;52.382;5.270;2023-08-06T02:07:10;100565.56;;;14.10;100.00
47054;BME280;32811;52.382;5.270;2023-08-06T02:09:36;100589.66;;;14.20;100.00
47054;BME280;32811;52.382;5.270;2023-08-06T02:12:03;100590.59;;;14.13;100.00
47054;BME280;32811;52.382;5.270;2023-08-06T02:14:30;100582.00;;;14.11;100.00
47054;BME280;32811;52.382;5.270;2023-08-06T02:16:56;100590.59;;;14.13;100.00
47054;BME280;32811;52.382;5.270;2023-08-06T02:19:23;100591.50;;;14.12;100.00
47054;BME280;32811;52.382;5.270;2023-08-06T02:21:50;100579.50;;;14.03;100.00
47054;BME280;32811;52.382;5.270;2023-08-06T02:24:17;100585.47;;;14.08;100.00
47054;BME280;32811;52.382;5.270;2023-08-06T02:26:43;100588.97;;;14.09;100.00
47054;BME280;32811;52.382;5.270;2023-08-06T02:29:10;100585.47;;;14.10;100.00
47054;BME280;32811;52.382;5.270;2023-08-06T02:31:37;100570.03;;;13.99;100.00
47054;BME280;32811;52.382;5.270;2023-08-06T02:34:03;100584.63;;;14.06;100.00
47054;BME280;32811;52.382;5.270;2023-08-06T02:36:30;100582.09;;;14.05;100.00
47054;BME280;32811;52.382;5.270;2023-08-06T02:38:56;100588.13;;;14.07;100.00
47054;BME280;32811;52.382;5.270;2023-08-06T02:41:23;100580.34;;;14.05;100.00
47054;BME280;32811;52.382;5.270;2023-08-06T02:43:50;100580.44;;;13.99;100.00
47054;BME280;32811;52.382;5.270;2023-08-06T02:46:16;100576.06;;;14.01;100.00
47054;BME280;32811;52.382;5.270;2023-08-06T02:48:43;100574.38;;;13.99;100.00
47054;BME280;32811;52.382;5.270;2023-08-06T02:51:09;100573.53;;;13.98;100.00
47054;BME280;32811;52.382;5.270;2023-08-06T02:53:36;100583.84;;;14.04;100.00
47054;BME280;32811;52.382;5.270;2023-08-06T02:56:03;100558.88;;;13.93;100.00
47054;BME280;32811;52.382;5.270;2023-08-06T02:58:29;100576.06;;;14.01;100.00
47054;BME280;32811;52.382;5.270;2023-08-06T03:01:04;100564.06;;;13.96;100.00
47054;BME280;32811;52.382;5.270;2023-08-06T03:03:31;100570.03;;;14.02;100.00
47054;BME280;32811;52.382;5.270;2023-08-06T03:05:58;100577.75;;;14.05;100.00
47054;BME280;32811;52.382;5.270;2023-08-06T03:08:25;100558.81;;;13.97;100.00
47054;BME280;32811;52.382;5.270;2023-08-06T03:10:52;100555.44;;;13.94;100.00
47054;BME280;32811;52.382;5.270;2023-08-06T03:13:19;100572.63;;;14.02;100.00
47054;BME280;32811;52.382;5.270;2023-08-06T03:15:56;100569.13;;;14.02;100.00
47054;BME280;32811;52.382;5.270;2023-08-06T03:18:23;100565.69;;;14.01;100.00
47054;BME280;32811;52.382;5.270;2023-08-06T03:20:50;100562.25;;;13.99;100.00
47054;BME280;32811;52.382;5.270;2023-08-06T03:23:17;100569.97;;;14.05;100.00
47054;BME280;32811;52.382;5.270;2023-08-06T03:25:44;100560.56;;;13.97;100.00
47054;BME280;32811;52.382;5.270;2023-08-06T03:28:11;100564.00;;;13.99;100.00
47054;BME280;32811;52.382;5.270;2023-08-06T03:30:38;100555.38;;;13.97;100.00
47054;BME280;32811;52.382;5.270;2023-08-06T03:33:04;100568.28;;;14.01;100.00
47054;BME280;32811;52.382;5.270;2023-08-06T03:35:31;100570.94;;;13.98;100.00
47054;BME280;32811;52.382;5.270;2023-08-06T03:37:57;100570.91;;;14.00;100.00
47054;BME280;32811;52.382;5.270;2023-08-06T03:40:24;100563.16;;;13.97;100.00
47054;BME280;32811;52.382;5.270;2023-08-06T03:42:51;100569.13;;;14.03;100.00
47054;BME280;32811;52.382;5.270;2023-08-06T03:45:17;100579.44;;;14.06;100.00
47054;BME280;32811;52.382;5.270;2023-08-06T03:47:44;100564.84;;;14.01;100.00
47054;BME280;32811;52.382;5.270;2023-08-06T03:50:10;100557.13;;;13.96;100.00
47054;BME280;32811;52.382;5.270;2023-08-06T03:52:37;100570.94;;;13.97;100.00
47054;BME280;32811;52.382;5.270;2023-08-06T03:55:04;100571.84;;;13.96;100.00
47054;BME280;32811;52.382;5.270;2023-08-06T03:57:30;100565.00;;;13.90;100.00
47054;BME280;32811;52.382;5.270;2023-08-06T03:59:57;100557.28;;;13.85;100.00
47054;BME280;32811;52.382;5.270;2023-08-06T04:02:24;100555.56;;;13.84;100.00
47054;BME280;32811;52.382;5.270;2023-08-06T04:04:50;100573.63;;;13.92;100.00
47054;BME280;32811;52.382;5.270;2023-08-06T04:07:19;100573.63;;;13.90;100.00
47054;BME280;32811;52.382;5.270;2023-08-06T04:09:54;100559.00;;;13.86;100.00
47054;BME280;32811;52.382;5.270;2023-08-06T04:12:21;100572.75;;;13.91;100.00
47054;BME280;32811;52.382;5.270;2023-08-06T04:14:49;100563.38;;;13.81;100.00
47054;BME280;32811;52.382;5.270;2023-08-06T04:17:16;100580.50;;;13.93;100.00
47054;BME280;32811;52.382;5.270;2023-08-06T04:19:43;100573.72;;;13.84;100.00
47054;BME280;32811;52.382;5.270;2023-08-06T04:22:10;100576.25;;;13.89;100.00
47054;BME280;32811;52.382;5.270;2023-08-06T04:24:36;100559.09;;;13.77;100.00
47054;BME280;32811;52.382;5.270;2023-08-06T04:27:04;100582.31;;;13.89;100.00
47054;BME280;32811;52.382;5.270;2023-08-06T04:29:30;100584.88;;;13.91;100.00
47054;BME280;32811;52.382;5.270;2023-08-06T04:31:57;100584.88;;;13.91;100.00
47054;BME280;32811;52.382;5.270;2023-08-06T04:34:24;100583.97;;;13.94;100.00
47054;BME280;32811;52.382;5.270;2023-08-06T04:36:51;100585.75;;;13.90;100.00
47054;BME280;32811;52.382;5.270;2023-08-06T04:39:17;100577.19;;;13.85;100.00
47054;BME280;32811;52.382;5.270;2023-08-06T04:41:44;100594.38;;;13.92;100.00
47054;BME280;32811;52.382;5.270;2023-08-06T04:44:10;100575.47;;;13.82;100.00
47054;BME280;32811;52.382;5.270;2023-08-06T04:46:37;100575.47;;;13.82;100.00
47054;BME280;32811;52.382;5.270;2023-08-06T04:49:04;100593.50;;;13.91;100.00
47054;BME280;32811;52.382;5.270;2023-08-06T04:51:30;100591.78;;;13.90;100.00
47054;BME280;32811;52.382;5.270;2023-08-06T04:53:57;100601.25;;;13.96;100.00
47054;BME280;32811;52.382;5.270;2023-08-06T04:56:24;100600.38;;;13.96;100.00
47054;BME280;32811;52.382;5.270;2023-08-06T04:58:51;100597.72;;;14.00;100.00
47054;BME280;32811;52.382;5.270;2023-08-06T05:01:17;100591.72;;;13.97;100.00
47054;BME280;32811;52.382;5.270;2023-08-06T05:03:44;100610.59;;;14.08;100.00
47054;BME280;32811;52.382;5.270;2023-08-06T05:06:11;100594.22;;;14.03;100.00
47054;BME280;32811;52.382;5.270;2023-08-06T05:08:37;100604.53;;;14.07;100.00
47054;BME280;32811;52.382;5.270;2023-08-06T05:11:04;100601.94;;;14.09;100.00
47054;BME280;32811;52.382;5.270;2023-08-06T05:13:30;100607.00;;;14.17;100.00
47054;BME280;32811;52.382;5.270;2023-08-06T05:15:58;100618.25;;;14.17;100.00
47054;BME280;32811;52.382;5.270;2023-08-06T05:18:24;100597.59;;;14.11;100.00
47054;BME280;32811;52.382;5.270;2023-08-06T05:20:51;100607.00;;;14.18;100.00
47054;BME280;32811;52.382;5.270;2023-08-06T05:23:17;100622.44;;;14.26;100.00
47054;BME280;32811;52.382;5.270;2023-08-06T05:25:44;100619.00;;;14.24;100.00
47054;BME280;32811;52.382;5.270;2023-08-06T05:28:11;100615.63;;;14.20;100.00
47054;BME280;32811;52.382;5.270;2023-08-06T05:30:41;100631.13;;;14.23;100.00
47054;BME280;32811;52.382;5.270;2023-08-06T05:33:08;100626.03;;;14.17;100.00
47054;BME280;32811;52.382;5.270;2023-08-06T05:35:34;100632.84;;;14.24;100.00
47054;BME280;32811;52.382;5.270;2023-08-06T05:38:01;100630.25;;;14.24;100.00
47054;BME280;32811;52.382;5.270;2023-08-06T05:40:28;100630.22;;;14.26;100.00
47054;BME280;32811;52.382;5.270;2023-08-06T05:42:54;100612.13;;;14.20;100.00
47054;BME280;32811;52.382;5.270;2023-08-06T05:45:21;100634.50;;;14.31;100.00
47054;BME280;32811;52.382;5.270;2023-08-06T05:47:48;100637.13;;;14.28;100.00
47054;BME280;32811;52.382;5.270;2023-08-06T05:50:15;100633.69;;;14.26;100.00
47054;BME280;32811;52.382;5.270;2023-08-06T05:52:43;100634.53;;;14.28;100.00
47054;BME280;32811;52.382;5.270;2023-08-06T05:55:10;100630.22;;;14.26;100.00
47054;BME280;32811;52.382;5.270;2023-08-06T05:57:36;100643.19;;;14.29;100.00
47054;BME280;32811;52.382;5.270;2023-08-06T06:00:03;100637.09;;;14.30;100.00
47054;BME280;32811;52.382;5.270;2023-08-06T06:02:32;100638.84;;;14.29;100.00
47054;BME280;32811;52.382;5.270;2023-08-06T06:04:59;100638.88;;;14.26;100.00
47054;BME280;32811;52.382;5.270;2023-08-06T06:07:25;100663.00;;;14.35;100.00
47054;BME280;32811;52.382;5.270;2023-08-06T06:09:52;100656.94;;;14.36;100.00
47054;BME280;32811;52.382;5.270;2023-08-06T06:12:19;100664.69;;;14.39;100.00
47054;BME280;32811;52.382;5.270;2023-08-06T06:14:45;100667.19;;;14.45;100.00
47054;BME280;32811;52.382;5.270;2023-08-06T06:17:12;100660.28;;;14.44;100.00
47054;BME280;32811;52.382;5.270;2023-08-06T06:19:38;100643.97;;;14.32;100.00
47054;BME280;32811;52.382;5.270;2023-08-06T06:22:05;100656.00;;;14.40;100.00
47054;BME280;32811;52.382;5.270;2023-08-06T06:24:32;100652.56;;;14.38;100.00
47054;BME280;32811;52.382;5.270;2023-08-06T06:26:59;100656.75;;;14.48;100.00
47054;BME280;32811;52.382;5.270;2023-08-06T06:29:25;100661.97;;;14.46;100.00
47054;BME280;32811;52.382;5.270;2023-08-06T06:31:52;100645.59;;;14.40;100.00
47054;BME280;32811;52.382;5.270;2023-08-06T06:34:19;100668.03;;;14.47;100.00
47054;BME280;32811;52.382;5.270;2023-08-06T06:36:46;100679.22;;;14.52;100.00
47054;BME280;32811;52.382;5.270;2023-08-06T06:39:12;100675.78;;;14.50;100.00
47054;BME280;32811;52.382;5.270;2023-08-06T06:41:39;100684.47;;;14.49;100.00
47054;BME280;32811;52.382;5.270;2023-08-06T06:44:06;100668.97;;;14.40;100.00
47054;BME280;32811;52.382;5.270;2023-08-06T06:46:32;100669.81;;;14.43;100.00
47054;BME280;32811;52.382;5.270;2023-08-06T06:48:59;100685.25;;;14.51;100.00
47054;BME280;32811;52.382;5.270;2023-08-06T06:51:25;100688.72;;;14.56;100.00
47054;BME280;32811;52.382;5.270;2023-08-06T06:53:52;100674.00;;;14.55;100.00
47054;BME280;32811;52.382;5.270;2023-08-06T06:56:18;100655.78;;;14.57;100.00
47054;BME280;32811;52.382;5.270;2023-08-06T06:58:45;100683.00;;;14.90;100.00
47054;BME280;32811;52.382;5.270;2023-08-06T07:01:12;100671.63;;;14.95;100.00
47054;BME280;32811;52.382;5.270;2023-08-06T07:03:38;100681.81;;;15.09;100.00
47054;BME280;32811;52.382;5.270;2023-08-06T07:06:06;100672.03;;;15.24;100.00
47054;BME280;32811;52.382;5.270;2023-08-06T07:08:33;100669.16;;;15.39;100.00
47054;BME280;32811;52.382;5.270;2023-08-06T07:11:03;100673.13;;;15.59;100.00
47054;BME280;32811;52.382;5.270;2023-08-06T07:13:31;100670.28;;;15.72;100.00
47054;BME280;32811;52.382;5.270;2023-08-06T07:15:57;100673.56;;;15.82;100.00
47054;BME280;32811;52.382;5.270;2023-08-06T07:18:24;100666.38;;;15.95;100.00
47054;BME280;32811;52.382;5.270;2023-08-06T07:20:53;100663.78;;;15.93;100.00
47054;BME280;32811;52.382;5.270;2023-08-06T07:23:21;100666.09;;;16.07;100.00
47054;BME280;32811;52.382;5.270;2023-08-06T07:25:48;100657.94;;;16.24;100.00
47054;BME280;32811;52.382;5.270;2023-08-06T07:28:15;100667.31;;;16.33;100.00
47054;BME280;32811;52.382;5.270;2023-08-06T07:30:43;100660.81;;;16.51;100.00
47054;BME280;32811;52.382;5.270;2023-08-06T07:33:10;100663.69;;;16.38;100.00
47054;BME280;32811;52.382;5.270;2023-08-06T07:35:37;100674.16;;;16.37;100.00
47054;BME280;32811;52.382;5.270;2023-08-06T07:38:04;100665.25;;;16.07;100.00
47054;BME280;32811;52.382;5.270;2023-08-06T07:40:31;100663.88;;;15.90;100.00
47054;BME280;32811;52.382;5.270;2023-08-06T07:42:57;100679.53;;;15.87;100.00
47054;BME280;32811;52.382;5.270;2023-08-06T07:45:24;100688.22;;;15.86;100.00
47054;BME280;32811;52.382;5.270;2023-08-06T07:47:50;100675.50;;;15.72;100.00
47054;BME280;32811;52.382;5.270;2023-08-06T07:50:17;100683.22;;;15.77;100.00
47054;BME280;32811;52.382;5.270;2023-08-06T07:52:44;100684.06;;;15.77;100.00
47054;BME280;32811;52.382;5.270;2023-08-06T07:55:10;100691.97;;;15.73;100.00
47054;BME280;32811;52.382;5.270;2023-08-06T07:57:37;100692.03;;;15.67;100.00
47054;BME280;32811;52.382;5.270;2023-08-06T08:00:05;100693.06;;;15.58;100.00
47054;BME280;32811;52.382;5.270;2023-08-06T08:02:31;100694.88;;;15.54;100.00
47054;BME280;32811;52.382;5.270;2023-08-06T08:04:58;100697.53;;;15.51;100.00
47054;BME280;32811;52.382;5.270;2023-08-06T08:07:25;100683.06;;;15.36;100.00
47054;BME280;32811;52.382;5.270;2023-08-06T08:09:54;100695.25;;;15.33;100.00
47054;BME280;32811;52.382;5.270;2023-08-06T08:12:20;100698.88;;;15.26;100.00
47054;BME280;32811;52.382;5.270;2023-08-06T08:14:47;100698.13;;;15.18;100.00
47054;BME280;32811;52.382;5.270;2023-08-06T08:17:13;100695.66;;;15.11;100.00
47054;BME280;32811;52.382;5.270;2023-08-06T08:19:40;100693.00;;;15.13;100.00
47054;BME280;32811;52.382;5.270;2023-08-06T08:22:07;100699.88;;;15.17;100.00
47054;BME280;32811;52.382;5.270;2023-08-06T08:24:34;100690.72;;;14.93;100.00
47054;BME280;32811;52.382;5.270;2023-08-06T08:27:01;100704.63;;;14.90;100.00
47054;BME280;32811;52.382;5.270;2023-08-06T08:29:27;100692.72;;;14.77;100.00
47054;BME280;32811;52.382;5.270;2023-08-06T08:31:54;100707.44;;;14.77;100.00
47054;BME280;32811;52.382;5.270;2023-08-06T08:34:21;100715.25;;;14.77;100.00
47054;BME280;32811;52.382;5.270;2023-08-06T08:36:47;100723.06;;;14.75;100.00
47054;BME280;32811;52.382;5.270;2023-08-06T08:39:16;100718.78;;;14.71;100.00
47054;BME280;32811;52.382;5.270;2023-08-06T08:41:42;100705.06;;;14.63;100.00
47054;BME280;32811;52.382;5.270;2023-08-06T08:44:09;100705.06;;;14.63;100.00
47054;BME280;32811;52.382;5.270;2023-08-06T08:46:40;100711.88;;;14.70;100.00
47054;BME280;32811;52.382;5.270;2023-08-06T08:49:08;100711.06;;;14.66;100.00
47054;BME280;32811;52.382;5.270;2023-08-06T08:51:35;100717.91;;;14.73;100.00
47054;BME280;32811;52.382;5.270;2023-08-06T08:54:03;100712.81;;;14.66;100.00
47054;BME280;32811;52.382;5.270;2023-08-06T08:56:31;100713.88;;;14.49;100.00
47054;BME280;32811;52.382;5.270;2023-08-06T08:58:58;100719.09;;;14.46;100.00
47054;BME280;32811;52.382;5.270;2023-08-06T09:01:26;100712.25;;;14.41;100.00
47054;BME280;32811;52.382;5.270;2023-08-06T09:03:55;100736.53;;;14.37;100.00
47054;BME280;32811;52.382;5.270;2023-08-06T09:06:25;100744.44;;;14.29;100.00
47054;BME280;32811;52.382;5.270;2023-08-06T09:09:01;100750.56;;;14.23;100.00
47054;BME280;32811;52.382;5.270;2023-08-06T09:11:30;100736.97;;;14.03;100.00
47054;BME280;32811;52.382;5.270;2023-08-06T09:14:09;100733.69;;;13.84;100.00
47054;BME280;32811;52.382;5.270;2023-08-06T09:16:36;100770.72;;;14.00;100.00
47054;BME280;32811;52.382;5.270;2023-08-06T09:19:13;100779.44;;;13.93;100.00
47054;BME280;32811;52.382;5.270;2023-08-06T09:21:42;100767.50;;;13.76;100.00
47054;BME280;32811;52.382;5.270;2023-08-06T09:24:10;100778.03;;;13.61;100.00
47054;BME280;32811;52.382;5.270;2023-08-06T09:26:37;100781.53;;;13.57;100.00
47054;BME280;32811;52.382;5.270;2023-08-06T09:29:06;100792.91;;;13.42;100.00
47054;BME280;32811;52.382;5.270;2023-08-06T09:31:45;100795.50;;;13.42;100.00
47054;BME280;32811;52.382;5.270;2023-08-06T09:34:17;100791.13;;;13.44;100.00
47054;BME280;32811;52.382;5.270;2023-08-06T09:36:46;100791.94;;;13.52;100.00
47054;BME280;32811;52.382;5.270;2023-08-06T09:39:18;100779.06;;;13.44;100.00
47054;BME280;32811;52.382;5.270;2023-08-06T09:41:46;100794.50;;;13.57;100.00
47054;BME280;32811;52.382;5.270;2023-08-06T09:44:17;100796.19;;;13.62;100.00
47054;BME280;32811;52.382;5.270;2023-08-06T09:46:52;100804.78;;;13.66;100.00
47054;BME280;32811;52.382;5.270;2023-08-06T09:49:41;100797.13;;;13.54;100.00
47054;BME280;32811;52.382;5.270;2023-08-06T09:52:12;100809.97;;;13.66;100.00
47054;BME280;32811;52.382;5.270;2023-08-06T09:54:39;100797.03;;;13.63;100.00
47054;BME280;32811;52.382;5.270;2023-08-06T09:57:06;100810.81;;;13.71;100.00
47054;BME280;32811;52.382;5.270;2023-08-06T09:59:34;100810.78;;;13.73;100.00
47054;BME280;32811;52.382;5.270;2023-08-06T10:02:02;100800.47;;;13.66;100.00
47054;BME280;32811;52.382;5.270;2023-08-06T10:04:30;100812.47;;;13.77;100.00
47054;BME280;32811;52.382;5.270;2023-08-06T10:07:06;100819.34;;;13.81;100.00
47054;BME280;32811;52.382;5.270;2023-08-06T10:09:33;100809.88;;;13.78;100.00
47054;BME280;32811;52.382;5.270;2023-08-06T10:12:00;100815.06;;;13.80;100.00
47054;BME280;32811;52.382;5.270;2023-08-06T10:14:33;100831.44;;;13.83;100.00
47054;BME280;32811;52.382;5.270;2023-08-06T10:17:01;100845.28;;;13.82;100.00
47054;BME280;32811;52.382;5.270;2023-08-06T10:19:29;100837.63;;;13.67;100.00
47054;BME280;32811;52.382;5.270;2023-08-06T10:32:48;100832.53;;;13.58;100.00
47054;BME280;32811;52.382;5.270;2023-08-06T10:35:41;100839.41;;;13.60;100.00
47054;BME280;32811;52.382;5.270;2023-08-06T10:38:18;100833.31;;;13.66;100.00
47054;BME280;32811;52.382;5.270;2023-08-06T10:43:32;100840.91;;;13.86;100.00
47054;BME280;32811;52.382;5.270;2023-08-06T10:46:03;100840.81;;;13.95;100.00
47054;BME280;32811;52.382;5.270;2023-08-06T10:48:38;100837.38;;;13.93;100.00
47054;BME280;32811;52.382;5.270;2023-08-06T10:51:10;100830.38;;;14.01;100.00
47054;BME280;32811;52.382;5.270;2023-08-06T10:53:38;100832.94;;;14.09;100.00
47054;BME280;32811;52.382;5.270;2023-08-06T10:56:15;100829.28;;;14.25;100.00
47054;BME280;32811;52.382;5.270;2023-08-06T10:58:45;100838.72;;;14.31;100.00
47054;BME280;32811;52.382;5.270;2023-08-06T11:01:12;100808.56;;;14.22;100.00
47054;BME280;32811;52.382;5.270;2023-08-06T11:03:40;100839.38;;;14.50;100.00
47054;BME280;32811;52.382;5.270;2023-08-06T11:06:07;100843.69;;;14.54;100.00
47054;BME280;32811;52.382;5.270;2023-08-06T11:08:38;100837.63;;;14.52;100.00
47054;BME280;32811;52.382;5.270;2023-08-06T11:11:09;100829.84;;;14.52;100.00
47054;BME280;32811;52.382;5.270;2023-08-06T11:13:37;100834.97;;;14.61;100.00
47054;BME280;32811;52.382;5.270;2023-08-06T11:16:07;100839.25;;;14.62;100.00
47054;BME280;32811;52.382;5.270;2023-08-06T11:18:34;100838.47;;;14.59;100.00
47054;BME280;32811;52.382;5.270;2023-08-06T11:21:02;100842.81;;;14.58;100.00
47054;BME280;32811;52.382;5.270;2023-08-06T11:23:29;100845.31;;;14.64;100.00
47054;BME280;32811;52.382;5.270;2023-08-06T11:25:56;100837.56;;;14.60;100.00
47054;BME280;32811;52.382;5.270;2023-08-06T11:28:24;100841.06;;;14.59;100.00
47054;BME280;32811;52.382;5.270;2023-08-06T11:30:51;100850.50;;;14.64;100.00
47054;BME280;32811;52.382;5.270;2023-08-06T11:33:24;100839.34;;;14.56;100.00
47054;BME280;32811;52.382;5.270;2023-08-06T11:35:58;100851.38;;;14.63;100.00
47054;BME280;32811;52.382;5.270;2023-08-06T11:38:27;100860.03;;;14.64;100.00
47054;BME280;32811;52.382;5.270;2023-08-06T11:40:55;100846.28;;;14.52;100.00
47054;BME280;32811;52.382;5.270;2023-08-06T11:43:22;100855.81;;;14.53;100.00
47054;BME280;32811;52.382;5.270;2023-08-06T11:45:49;100866.19;;;14.57;100.00
47054;BME280;32811;52.382;5.270;2023-08-06T11:48:17;100862.69;;;14.59;100.00
47054;BME280;32811;52.382;5.270;2023-08-06T11:50:44;100872.22;;;14.57;100.00
47054;BME280;32811;52.382;5.270;2023-08-06T11:53:15;100870.50;;;14.53;100.00
47054;BME280;32811;52.382;5.270;2023-08-06T11:55:42;100873.19;;;14.47;100.00
47054;BME280;32811;52.382;5.270;2023-08-06T11:58:11;100872.41;;;14.39;100.00
47054;BME280;32811;52.382;5.270;2023-08-06T12:00:42;100871.47;;;14.44;100.00
47054;BME280;32811;52.382;5.270;2023-08-06T12:03:10;100868.16;;;14.31;100.00
47054;BME280;32811;52.382;5.270;2023-08-06T12:05:37;100867.47;;;14.16;100.00
47054;BME280;32811;52.382;5.270;2023-08-06T12:08:05;100864.03;;;14.14;100.00
47054;BME280;32811;52.382;5.270;2023-08-06T12:10:32;100878.66;;;14.22;100.00
47054;BME280;32811;52.382;5.270;2023-08-06T12:13:00;100873.47;;;14.21;100.00
47054;BME280;32811;52.382;5.270;2023-08-06T12:15:26;100875.97;;;14.28;100.00
47054;BME280;32811;52.382;5.270;2023-08-06T12:17:53;100872.56;;;14.23;100.00
47054;BME280;32811;52.382;5.270;2023-08-06T12:20:20;100876.88;;;14.24;100.00
47054;BME280;32811;52.382;5.270;2023-08-06T12:22:46;100895.00;;;14.30;100.00
47054;BME280;32811;52.382;5.270;2023-08-06T12:25:13;100895.84;;;14.32;100.00
47054;BME280;32811;52.382;5.270;2023-08-06T12:27:44;100897.59;;;14.30;100.00
47054;BME280;32811;52.382;5.270;2023-08-06T12:30:12;100896.66;;;14.38;100.00
47054;BME280;32811;52.382;5.270;2023-08-06T12:32:39;100890.75;;;14.25;100.00
47054;BME280;32811;52.382;5.270;2023-08-06T12:35:06;100880.41;;;14.20;100.00
47054;BME280;32811;52.382;5.270;2023-08-06T12:37:34;100906.22;;;14.36;100.00
47054;BME280;32811;52.382;5.270;2023-08-06T12:40:02;100895.84;;;14.34;100.00
47054;BME280;32811;52.382;5.270;2023-08-06T12:42:50;100902.69;;;14.40;100.00
47054;BME280;32811;52.382;5.270;2023-08-06T12:45:17;100897.47;;;14.41;100.00
47054;BME280;32811;52.382;5.270;2023-08-06T12:47:48;100898.38;;;14.39;100.00
47054;BME280;32811;52.382;5.270;2023-08-06T12:50:16;100908.59;;;14.57;100.00
47054;BME280;32811;52.382;5.270;2023-08-06T12:52:43;100903.41;;;14.57;100.00
47054;BME280;32811;52.382;5.270;2023-08-06T12:55:10;100917.19;;;14.65;100.00
47054;BME280;32811;52.382;5.270;2023-08-06T12:57:37;100898.16;;;14.63;100.00
47054;BME280;32811;52.382;5.270;2023-08-06T13:00:22;100908.44;;;14.72;100.00
47054;BME280;32811;52.382;5.270;2023-08-06T13:02:49;100910.97;;;14.76;100.00
47054;BME280;32811;52.382;5.270;2023-08-06T13:05:15;100923.00;;;14.86;100.00